sensor_id;sensor_type;location;lat;lon;timestamp;P1;durP1;ratioP1;P2;durP2;ratioP2
4786;SDS011;62338;48.832;9.422;2023-01-04T00:01:36;6.20;;;4.50;;
4786;SDS011;62338;48.832;9.422;2023-01-04T00:03:38;7.87;;;4.90;;
4786;SDS011;62338;48.832;9.422;2023-01-04T00:05:40;8.20;;;4.77;;
4786;SDS011;62338;48.832;9.422;2023-01-04T00:07:42;7.60;;;5.20;;
4786;SDS011;62338;48.832;9.422;2023-01-04T00:09:44;8.10;;;5.30;;
4786;SDS011;62338;48.832;9.422;2023-01-04T00:11:45;8.00;;;5.37;;
4786;SDS011;62338;48.832;9.422;2023-01-04T00:13:48;9.00;;;5.03;;
4786;SDS011;62338;48.832;9.422;2023-01-04T00:15:51;8.83;;;5.43;;
4786;SDS011;62338;48.832;9.422;2023-01-04T00:17:53;7.80;;;5.67;;
4786;SDS011;62338;48.832;9.422;2023-01-04T00:19:55;6.97;;;4.87;;
4786;SDS011;62338;48.832;9.422;2023-01-04T00:21:56;7.83;;;5.27;;
4786;SDS011;62338;48.832;9.422;2023-01-04T00:23:59;9.00;;;5.30;;
4786;SDS011;62338;48.832;9.422;2023-01-04T00:26:05;9.37;;;5.07;;
4786;SDS011;62338;48.832;9.422;2023-01-04T00:28:14;7.80;;;4.63;;
4786;SDS011;62338;48.832;9.422;2023-01-04T00:30:16;7.70;;;5.30;;
4786;SDS011;62338;48.832;9.422;2023-01-04T00:32:18;7.20;;;5.20;;
4786;SDS011;62338;48.832;9.422;2023-01-04T00:34:20;7.73;;;5.17;;
4786;SDS011;62338;48.832;9.422;2023-01-04T00:36:22;7.07;;;4.90;;
4786;SDS011;62338;48.832;9.422;2023-01-04T00:38:24;6.73;;;5.10;;
4786;SDS011;62338;48.832;9.422;2023-01-04T00:40:26;6.17;;;4.50;;
4786;SDS011;62338;48.832;9.422;2023-01-04T00:42:28;6.40;;;4.93;;
4786;SDS011;62338;48.832;9.422;2023-01-04T00:44:30;6.93;;;4.97;;
4786;SDS011;62338;48.832;9.422;2023-01-04T00:46:34;5.50;;;4.47;;
4786;SDS011;62338;48.832;9.422;2023-01-04T00:48:37;8.37;;;4.47;;
4786;SDS011;62338;48.832;9.422;2023-01-04T00:50:42;5.93;;;4.27;;
4786;SDS011;62338;48.832;9.422;2023-01-04T00:52:44;6.37;;;4.57;;
4786;SDS011;62338;48.832;9.422;2023-01-04T00:54:49;5.23;;;4.20;;
4786;SDS011;62338;48.832;9.422;2023-01-04T00:56:50;7.00;;;4.20;;
4786;SDS011;62338;48.832;9.422;2023-01-04T00:58:53;6.87;;;4.03;;
4786;SDS011;62338;48.832;9.422;2023-01-04T01:01:03;7.63;;;4.20;;
4786;SDS011;62338;48.832;9.422;2023-01-04T01:03:06;5.57;;;3.93;;
4786;SDS011;62338;48.832;9.422;2023-01-04T01:05:08;4.83;;;3.90;;
4786;SDS011;62338;48.832;9.422;2023-01-04T01:07:10;8.60;;;3.93;;
4786;SDS011;62338;48.832;9.422;2023-01-04T01:09:12;6.07;;;4.30;;
4786;SDS011;62338;48.832;9.422;2023-01-04T01:11:14;5.97;;;4.10;;
4786;SDS011;62338;48.832;9.422;2023-01-04T01:13:16;4.80;;;4.07;;
4786;SDS011;62338;48.832;9.422;2023-01-04T01:15:18;6.30;;;3.97;;
4786;SDS011;62338;48.832;9.422;2023-01-04T01:17:20;5.70;;;3.77;;
4786;SDS011;62338;48.832;9.422;2023-01-04T01:19:21;4.90;;;3.90;;
4786;SDS011;62338;48.832;9.422;2023-01-04T01:21:24;4.80;;;3.60;;
4786;SDS011;62338;48.832;9.422;2023-01-04T01:23:27;5.03;;;3.67;;
4786;SDS011;62338;48.832;9.422;2023-01-04T01:25:31;4.70;;;3.70;;
4786;SDS011;62338;48.832;9.422;2023-01-04T01:27:34;9.30;;;4.00;;
4786;SDS011;62338;48.832;9.422;2023-01-04T01:29:36;5.07;;;3.70;;
4786;SDS011;62338;48.832;9.422;2023-01-04T01:31:38;9.50;;;4.30;;
4786;SDS011;62338;48.832;9.422;2023-01-04T01:33:42;5.70;;;3.67;;
4786;SDS011;62338;48.832;9.422;2023-01-04T01:35:45;4.80;;;3.37;;
4786;SDS011;62338;48.832;9.422;2023-01-04T01:37:47;4.67;;;3.97;;
4786;SDS011;62338;48.832;9.422;2023-01-04T01:39:48;5.60;;;3.83;;
4786;SDS011;62338;48.832;9.422;2023-01-04T01:41:50;5.80;;;4.00;;
4786;SDS011;62338;48.832;9.422;2023-01-04T01:43:53;5.40;;;4.00;;
4786;SDS011;62338;48.832;9.422;2023-01-04T01:46:00;4.93;;;3.17;;
4786;SDS011;62338;48.832;9.422;2023-01-04T01:48:04;4.90;;;3.63;;
4786;SDS011;62338;48.832;9.422;2023-01-04T01:50:24;6.33;;;4.03;;
4786;SDS011;62338;48.832;9.422;2023-01-04T01:52:30;4.77;;;3.20;;
4786;SDS011;62338;48.832;9.422;2023-01-04T01:54:47;4.23;;;3.57;;
4786;SDS011;62338;48.832;9.422;2023-01-04T01:56:52;4.90;;;3.40;;
4786;SDS011;62338;48.832;9.422;2023-01-04T01:58:58;4.47;;;3.40;;
4786;SDS011;62338;48.832;9.422;2023-01-04T02:01:01;4.13;;;2.83;;
4786;SDS011;62338;48.832;9.422;2023-01-04T02:03:06;4.50;;;3.07;;
4786;SDS011;62338;48.832;9.422;2023-01-04T02:05:14;3.60;;;3.13;;
4786;SDS011;62338;48.832;9.422;2023-01-04T02:07:21;5.63;;;3.13;;
4786;SDS011;62338;48.832;9.422;2023-01-04T02:09:25;9.00;;;3.97;;
4786;SDS011;62338;48.832;9.422;2023-01-04T02:11:26;4.93;;;3.53;;
4786;SDS011;62338;48.832;9.422;2023-01-04T02:13:29;6.53;;;3.50;;
4786;SDS011;62338;48.832;9.422;2023-01-04T02:18:08;5.53;;;3.30;;
4786;SDS011;62338;48.832;9.422;2023-01-04T02:29:04;7.00;;;5.40;;
4786;SDS011;62338;48.832;9.422;2023-01-04T02:31:31;6.90;;;4.93;;
4786;SDS011;62338;48.832;9.422;2023-01-04T02:43:08;8.00;;;5.90;;
4786;SDS011;62338;48.832;9.422;2023-01-04T02:45:55;8.80;;;5.60;;
4786;SDS011;62338;48.832;9.422;2023-01-04T02:48:06;7.47;;;5.50;;
4786;SDS011;62338;48.832;9.422;2023-01-04T02:52:37;9.30;;;6.17;;
4786;SDS011;62338;48.832;9.422;2023-01-04T02:54:39;6.63;;;5.50;;
4786;SDS011;62338;48.832;9.422;2023-01-04T03:06:57;7.03;;;5.33;;
4786;SDS011;62338;48.832;9.422;2023-01-04T03:09:21;9.50;;;4.83;;
4786;SDS011;62338;48.832;9.422;2023-01-04T03:11:30;7.27;;;5.73;;
4786;SDS011;62338;48.832;9.422;2023-01-04T03:14:03;6.03;;;4.00;;
4786;SDS011;62338;48.832;9.422;2023-01-04T03:16:33;6.80;;;4.80;;
4786;SDS011;62338;48.832;9.422;2023-01-04T03:18:39;7.00;;;5.10;;
4786;SDS011;62338;48.832;9.422;2023-01-04T03:20:45;8.10;;;5.23;;
4786;SDS011;62338;48.832;9.422;2023-01-04T03:22:53;8.10;;;5.50;;
4786;SDS011;62338;48.832;9.422;2023-01-04T03:25:23;7.30;;;4.83;;
4786;SDS011;62338;48.832;9.422;2023-01-04T03:27:46;5.07;;;4.30;;
4786;SDS011;62338;48.832;9.422;2023-01-04T03:30:09;9.60;;;5.30;;
4786;SDS011;62338;48.832;9.422;2023-01-04T03:32:41;7.13;;;5.33;;
4786;SDS011;62338;48.832;9.422;2023-01-04T03:35:03;6.33;;;4.73;;
4786;SDS011;62338;48.832;9.422;2023-01-04T03:39:41;6.10;;;4.40;;
4786;SDS011;62338;48.832;9.422;2023-01-04T03:45:07;6.83;;;4.80;;
4786;SDS011;62338;48.832;9.422;2023-01-04T03:47:32;7.77;;;5.50;;
4786;SDS011;62338;48.832;9.422;2023-01-04T03:50:05;8.00;;;5.00;;
4786;SDS011;62338;48.832;9.422;2023-01-04T03:52:12;9.47;;;5.20;;
4786;SDS011;62338;48.832;9.422;2023-01-04T03:54:18;7.97;;;5.47;;
4786;SDS011;62338;48.832;9.422;2023-01-04T03:56:29;8.03;;;5.43;;
4786;SDS011;62338;48.832;9.422;2023-01-04T03:58:32;6.77;;;5.27;;
4786;SDS011;62338;48.832;9.422;2023-01-04T04:00:35;8.47;;;5.07;;
4786;SDS011;62338;48.832;9.422;2023-01-04T04:02:38;8.47;;;4.80;;
4786;SDS011;62338;48.832;9.422;2023-01-04T04:04:41;6.00;;;4.37;;
4786;SDS011;62338;48.832;9.422;2023-01-04T04:07:01;7.50;;;4.17;;
4786;SDS011;62338;48.832;9.422;2023-01-04T04:09:21;6.53;;;5.00;;
4786;SDS011;62338;48.832;9.422;2023-01-04T04:11:23;7.27;;;4.70;;
4786;SDS011;62338;48.832;9.422;2023-01-04T04:13:31;6.93;;;4.50;;
4786;SDS011;62338;48.832;9.422;2023-01-04T04:15:33;7.50;;;4.50;;
4786;SDS011;62338;48.832;9.422;2023-01-04T04:17:37;9.60;;;5.03;;
4786;SDS011;62338;48.832;9.422;2023-01-04T04:19:38;6.07;;;4.07;;
4786;SDS011;62338;48.832;9.422;2023-01-04T04:21:40;5.93;;;4.13;;
4786;SDS011;62338;48.832;9.422;2023-01-04T04:23:42;5.10;;;4.00;;
4786;SDS011;62338;48.832;9.422;2023-01-04T04:25:44;4.93;;;4.07;;
4786;SDS011;62338;48.832;9.422;2023-01-04T04:27:46;4.60;;;3.60;;
4786;SDS011;62338;48.832;9.422;2023-01-04T04:29:48;8.70;;;4.10;;
4786;SDS011;62338;48.832;9.422;2023-01-04T04:31:50;5.77;;;4.20;;
4786;SDS011;62338;48.832;9.422;2023-01-04T04:33:52;6.60;;;3.90;;
4786;SDS011;62338;48.832;9.422;2023-01-04T04:35:54;7.17;;;4.33;;
4786;SDS011;62338;48.832;9.422;2023-01-04T04:37:56;6.23;;;4.80;;
4786;SDS011;62338;48.832;9.422;2023-01-04T04:39:58;8.20;;;4.60;;
4786;SDS011;62338;48.832;9.422;2023-01-04T04:42:00;6.00;;;4.20;;
4786;SDS011;62338;48.832;9.422;2023-01-04T04:44:02;5.60;;;4.53;;
4786;SDS011;62338;48.832;9.422;2023-01-04T04:46:04;6.33;;;4.70;;
4786;SDS011;62338;48.832;9.422;2023-01-04T04:48:06;3.90;;;3.30;;
4786;SDS011;62338;48.832;9.422;2023-01-04T04:50:08;7.10;;;4.53;;
4786;SDS011;62338;48.832;9.422;2023-01-04T04:52:09;5.03;;;3.87;;
4786;SDS011;62338;48.832;9.422;2023-01-04T04:54:16;5.33;;;3.80;;
4786;SDS011;62338;48.832;9.422;2023-01-04T04:56:19;5.37;;;4.07;;
4786;SDS011;62338;48.832;9.422;2023-01-04T04:58:21;5.53;;;3.33;;
4786;SDS011;62338;48.832;9.422;2023-01-04T05:00:23;3.83;;;2.97;;
4786;SDS011;62338;48.832;9.422;2023-01-04T05:02:25;4.80;;;2.93;;
4786;SDS011;62338;48.832;9.422;2023-01-04T05:04:27;4.20;;;3.30;;
4786;SDS011;62338;48.832;9.422;2023-01-04T05:06:28;3.63;;;2.30;;
4786;SDS011;62338;48.832;9.422;2023-01-04T05:08:31;6.03;;;3.40;;
4786;SDS011;62338;48.832;9.422;2023-01-04T05:10:32;4.13;;;3.17;;
4786;SDS011;62338;48.832;9.422;2023-01-04T05:12:34;3.50;;;2.77;;
4786;SDS011;62338;48.832;9.422;2023-01-04T05:14:58;6.33;;;3.23;;
4786;SDS011;62338;48.832;9.422;2023-01-04T05:17:00;4.53;;;2.97;;
4786;SDS011;62338;48.832;9.422;2023-01-04T05:19:02;4.97;;;3.17;;
4786;SDS011;62338;48.832;9.422;2023-01-04T05:21:04;3.90;;;2.67;;
4786;SDS011;62338;48.832;9.422;2023-01-04T05:23:06;3.83;;;2.90;;
4786;SDS011;62338;48.832;9.422;2023-01-04T05:25:10;3.60;;;2.50;;
4786;SDS011;62338;48.832;9.422;2023-01-04T05:27:12;5.87;;;3.37;;
4786;SDS011;62338;48.832;9.422;2023-01-04T05:29:14;3.67;;;2.60;;
4786;SDS011;62338;48.832;9.422;2023-01-04T05:31:45;3.63;;;2.70;;
4786;SDS011;62338;48.832;9.422;2023-01-04T05:33:47;6.53;;;3.13;;
4786;SDS011;62338;48.832;9.422;2023-01-04T05:35:48;2.70;;;2.30;;
4786;SDS011;62338;48.832;9.422;2023-01-04T05:37:51;4.97;;;2.33;;
4786;SDS011;62338;48.832;9.422;2023-01-04T05:39:53;3.90;;;2.63;;
4786;SDS011;62338;48.832;9.422;2023-01-04T05:41:55;4.17;;;2.80;;
4786;SDS011;62338;48.832;9.422;2023-01-04T05:44:15;3.57;;;2.50;;
4786;SDS011;62338;48.832;9.422;2023-01-04T05:46:17;3.50;;;2.33;;
4786;SDS011;62338;48.832;9.422;2023-01-04T05:48:19;4.03;;;2.83;;
4786;SDS011;62338;48.832;9.422;2023-01-04T05:50:22;4.90;;;2.70;;
4786;SDS011;62338;48.832;9.422;2023-01-04T05:52:24;3.73;;;2.53;;
4786;SDS011;62338;48.832;9.422;2023-01-04T05:54:26;4.33;;;2.50;;
4786;SDS011;62338;48.832;9.422;2023-01-04T05:56:28;3.40;;;2.40;;
4786;SDS011;62338;48.832;9.422;2023-01-04T05:58:30;3.00;;;2.20;;
4786;SDS011;62338;48.832;9.422;2023-01-04T06:00:31;3.30;;;2.37;;
4786;SDS011;62338;48.832;9.422;2023-01-04T06:02:33;5.43;;;2.73;;
4786;SDS011;62338;48.832;9.422;2023-01-04T06:04:35;3.77;;;2.40;;
4786;SDS011;62338;48.832;9.422;2023-01-04T06:06:37;3.97;;;2.60;;
4786;SDS011;62338;48.832;9.422;2023-01-04T06:08:38;4.10;;;2.43;;
4786;SDS011;62338;48.832;9.422;2023-01-04T06:10:40;3.70;;;2.20;;
4786;SDS011;62338;48.832;9.422;2023-01-04T06:12:42;4.40;;;2.47;;
4786;SDS011;62338;48.832;9.422;2023-01-04T06:14:43;3.60;;;2.60;;
4786;SDS011;62338;48.832;9.422;2023-01-04T06:16:45;3.70;;;2.30;;
4786;SDS011;62338;48.832;9.422;2023-01-04T06:18:47;3.87;;;2.30;;
4786;SDS011;62338;48.832;9.422;2023-01-04T06:20:49;3.53;;;2.30;;
4786;SDS011;62338;48.832;9.422;2023-01-04T06:22:51;4.50;;;2.40;;
4786;SDS011;62338;48.832;9.422;2023-01-04T06:24:53;3.20;;;1.90;;
4786;SDS011;62338;48.832;9.422;2023-01-04T06:26:55;3.10;;;1.80;;
4786;SDS011;62338;48.832;9.422;2023-01-04T06:28:57;2.70;;;1.90;;
4786;SDS011;62338;48.832;9.422;2023-01-04T06:31:05;3.10;;;2.13;;
4786;SDS011;62338;48.832;9.422;2023-01-04T06:33:08;3.70;;;2.30;;
4786;SDS011;62338;48.832;9.422;2023-01-04T06:35:11;2.70;;;1.90;;
4786;SDS011;62338;48.832;9.422;2023-01-04T06:37:13;3.43;;;1.70;;
4786;SDS011;62338;48.832;9.422;2023-01-04T06:39:15;2.60;;;1.53;;
4786;SDS011;62338;48.832;9.422;2023-01-04T06:41:17;3.90;;;2.20;;
4786;SDS011;62338;48.832;9.422;2023-01-04T06:43:19;2.93;;;2.20;;
4786;SDS011;62338;48.832;9.422;2023-01-04T06:45:20;3.17;;;1.90;;
4786;SDS011;62338;48.832;9.422;2023-01-04T06:47:22;2.97;;;1.83;;
4786;SDS011;62338;48.832;9.422;2023-01-04T06:49:24;3.73;;;2.10;;
4786;SDS011;62338;48.832;9.422;2023-01-04T06:51:26;3.40;;;2.10;;
4786;SDS011;62338;48.832;9.422;2023-01-04T06:53:28;3.50;;;1.70;;
4786;SDS011;62338;48.832;9.422;2023-01-04T06:55:30;2.50;;;1.63;;
4786;SDS011;62338;48.832;9.422;2023-01-04T06:57:32;2.10;;;1.40;;
4786;SDS011;62338;48.832;9.422;2023-01-04T06:59:33;2.67;;;1.67;;
4786;SDS011;62338;48.832;9.422;2023-01-04T07:01:35;3.43;;;1.70;;
4786;SDS011;62338;48.832;9.422;2023-01-04T07:03:37;2.70;;;1.43;;
4786;SDS011;62338;48.832;9.422;2023-01-04T07:05:39;2.87;;;1.80;;
4786;SDS011;62338;48.832;9.422;2023-01-04T07:07:41;2.27;;;1.30;;
4786;SDS011;62338;48.832;9.422;2023-01-04T07:09:43;2.13;;;0.90;;
4786;SDS011;62338;48.832;9.422;2023-01-04T07:11:44;8.33;;;1.50;;
4786;SDS011;62338;48.832;9.422;2023-01-04T07:13:46;1.77;;;1.17;;
4786;SDS011;62338;48.832;9.422;2023-01-04T07:15:48;2.40;;;1.10;;
4786;SDS011;62338;48.832;9.422;2023-01-04T07:17:50;1.93;;;0.90;;
4786;SDS011;62338;48.832;9.422;2023-01-04T07:19:52;2.20;;;1.10;;
4786;SDS011;62338;48.832;9.422;2023-01-04T07:21:53;3.00;;;1.30;;
4786;SDS011;62338;48.832;9.422;2023-01-04T07:23:55;2.77;;;1.23;;
4786;SDS011;62338;48.832;9.422;2023-01-04T07:26:01;2.37;;;1.23;;
4786;SDS011;62338;48.832;9.422;2023-01-04T07:28:03;3.70;;;1.27;;
4786;SDS011;62338;48.832;9.422;2023-01-04T07:30:05;2.20;;;1.00;;
4786;SDS011;62338;48.832;9.422;2023-01-04T07:32:07;2.17;;;1.23;;
4786;SDS011;62338;48.832;9.422;2023-01-04T07:34:14;2.67;;;1.10;;
4786;SDS011;62338;48.832;9.422;2023-01-04T07:36:18;2.70;;;1.33;;
4786;SDS011;62338;48.832;9.422;2023-01-04T07:38:20;4.33;;;1.30;;
4786;SDS011;62338;48.832;9.422;2023-01-04T07:40:22;2.50;;;1.27;;
4786;SDS011;62338;48.832;9.422;2023-01-04T07:42:23;2.23;;;1.43;;
4786;SDS011;62338;48.832;9.422;2023-01-04T07:44:25;2.30;;;1.27;;
4786;SDS011;62338;48.832;9.422;2023-01-04T07:46:28;2.37;;;1.50;;
4786;SDS011;62338;48.832;9.422;2023-01-04T07:48:30;3.40;;;1.60;;
4786;SDS011;62338;48.832;9.422;2023-01-04T07:50:32;2.27;;;1.17;;
4786;SDS011;62338;48.832;9.422;2023-01-04T07:52:33;2.70;;;1.37;;
4786;SDS011;62338;48.832;9.422;2023-01-04T07:54:35;3.17;;;1.50;;
4786;SDS011;62338;48.832;9.422;2023-01-04T07:56:37;3.17;;;1.37;;
4786;SDS011;62338;48.832;9.422;2023-01-04T07:58:39;2.40;;;1.80;;
4786;SDS011;62338;48.832;9.422;2023-01-04T08:00:42;3.90;;;1.70;;
4786;SDS011;62338;48.832;9.422;2023-01-04T08:02:43;2.47;;;1.70;;
4786;SDS011;62338;48.832;9.422;2023-01-04T08:04:45;2.43;;;1.53;;
4786;SDS011;62338;48.832;9.422;2023-01-04T08:06:47;4.20;;;1.60;;
4786;SDS011;62338;48.832;9.422;2023-01-04T08:08:49;4.53;;;1.90;;
4786;SDS011;62338;48.832;9.422;2023-01-04T08:10:51;2.60;;;1.70;;
4786;SDS011;62338;48.832;9.422;2023-01-04T08:12:53;3.27;;;1.57;;
4786;SDS011;62338;48.832;9.422;2023-01-04T08:14:55;2.77;;;1.60;;
4786;SDS011;62338;48.832;9.422;2023-01-04T08:16:57;3.10;;;2.00;;
4786;SDS011;62338;48.832;9.422;2023-01-04T08:18:59;2.70;;;1.87;;
4786;SDS011;62338;48.832;9.422;2023-01-04T08:21:07;3.57;;;1.97;;
4786;SDS011;62338;48.832;9.422;2023-01-04T08:23:10;2.37;;;1.60;;
4786;SDS011;62338;48.832;9.422;2023-01-04T08:25:12;2.40;;;1.40;;
4786;SDS011;62338;48.832;9.422;2023-01-04T08:27:14;2.77;;;1.73;;
4786;SDS011;62338;48.832;9.422;2023-01-04T08:29:15;5.03;;;1.87;;
4786;SDS011;62338;48.832;9.422;2023-01-04T08:31:19;3.37;;;1.57;;
4786;SDS011;62338;48.832;9.422;2023-01-04T08:33:22;2.33;;;1.70;;
4786;SDS011;62338;48.832;9.422;2023-01-04T08:35:24;3.37;;;1.70;;
4786;SDS011;62338;48.832;9.422;2023-01-04T08:37:26;6.70;;;1.90;;
4786;SDS011;62338;48.832;9.422;2023-01-04T08:39:29;2.30;;;1.50;;
4786;SDS011;62338;48.832;9.422;2023-01-04T08:41:35;3.30;;;1.30;;
4786;SDS011;62338;48.832;9.422;2023-01-04T08:44:07;6.40;;;1.40;;
4786;SDS011;62338;48.832;9.422;2023-01-04T08:46:09;2.87;;;1.50;;
4786;SDS011;62338;48.832;9.422;2023-01-04T08:48:12;4.90;;;2.00;;
4786;SDS011;62338;48.832;9.422;2023-01-04T08:50:21;3.63;;;1.37;;
4786;SDS011;62338;48.832;9.422;2023-01-04T08:52:22;1.50;;;0.90;;
4786;SDS011;62338;48.832;9.422;2023-01-04T08:54:24;2.10;;;1.30;;
4786;SDS011;62338;48.832;9.422;2023-01-04T08:56:26;2.10;;;1.40;;
4786;SDS011;62338;48.832;9.422;2023-01-04T08:58:29;3.03;;;1.70;;
4786;SDS011;62338;48.832;9.422;2023-01-04T09:00:32;4.03;;;2.07;;
4786;SDS011;62338;48.832;9.422;2023-01-04T09:02:33;2.80;;;1.50;;
4786;SDS011;62338;48.832;9.422;2023-01-04T09:04:35;2.47;;;1.57;;
4786;SDS011;62338;48.832;9.422;2023-01-04T09:06:38;4.47;;;1.90;;
4786;SDS011;62338;48.832;9.422;2023-01-04T09:08:41;2.37;;;1.40;;
4786;SDS011;62338;48.832;9.422;2023-01-04T09:10:44;2.43;;;1.37;;
4786;SDS011;62338;48.832;9.422;2023-01-04T09:12:46;2.47;;;1.47;;
4786;SDS011;62338;48.832;9.422;2023-01-04T09:14:48;2.30;;;1.20;;
4786;SDS011;62338;48.832;9.422;2023-01-04T09:16:49;2.70;;;1.00;;
4786;SDS011;62338;48.832;9.422;2023-01-04T09:18:52;2.23;;;1.20;;
4786;SDS011;62338;48.832;9.422;2023-01-04T09:20:55;1.87;;;1.10;;
4786;SDS011;62338;48.832;9.422;2023-01-04T09:22:57;2.23;;;1.27;;
4786;SDS011;62338;48.832;9.422;2023-01-04T09:24:59;2.27;;;1.27;;
4786;SDS011;62338;48.832;9.422;2023-01-04T09:27:01;2.00;;;1.10;;
4786;SDS011;62338;48.832;9.422;2023-01-04T09:29:04;2.13;;;1.00;;
4786;SDS011;62338;48.832;9.422;2023-01-04T09:31:07;2.00;;;1.27;;
4786;SDS011;62338;48.832;9.422;2023-01-04T09:33:11;1.93;;;1.20;;
4786;SDS011;62338;48.832;9.422;2023-01-04T09:35:13;3.23;;;1.20;;
4786;SDS011;62338;48.832;9.422;2023-01-04T09:37:15;1.73;;;0.97;;
4786;SDS011;62338;48.832;9.422;2023-01-04T09:39:16;5.93;;;1.40;;
4786;SDS011;62338;48.832;9.422;2023-01-04T09:41:27;2.53;;;0.90;;
4786;SDS011;62338;48.832;9.422;2023-01-04T09:43:33;2.47;;;0.90;;
4786;SDS011;62338;48.832;9.422;2023-01-04T09:45:43;3.20;;;1.20;;
4786;SDS011;62338;48.832;9.422;2023-01-04T09:50:00;2.90;;;1.10;;
4786;SDS011;62338;48.832;9.422;2023-01-04T09:52:10;3.20;;;1.30;;
4786;SDS011;62338;48.832;9.422;2023-01-04T09:54:18;1.70;;;0.80;;
4786;SDS011;62338;48.832;9.422;2023-01-04T09:56:32;2.53;;;1.20;;
4786;SDS011;62338;48.832;9.422;2023-01-04T09:58:39;8.97;;;1.10;;
4786;SDS011;62338;48.832;9.422;2023-01-04T10:00:43;2.13;;;0.90;;
4786;SDS011;62338;48.832;9.422;2023-01-04T10:02:54;3.17;;;1.10;;
4786;SDS011;62338;48.832;9.422;2023-01-04T10:05:00;2.07;;;1.00;;
4786;SDS011;62338;48.832;9.422;2023-01-04T10:07:03;1.90;;;0.90;;
4786;SDS011;62338;48.832;9.422;2023-01-04T10:09:08;1.73;;;0.93;;
4786;SDS011;62338;48.832;9.422;2023-01-04T10:16:12;2.13;;;0.90;;
4786;SDS011;62338;48.832;9.422;2023-01-04T10:18:45;3.20;;;1.03;;
4786;SDS011;62338;48.832;9.422;2023-01-04T10:23:39;1.80;;;1.00;;
4786;SDS011;62338;48.832;9.422;2023-01-04T10:25:55;4.33;;;1.00;;
4786;SDS011;62338;48.832;9.422;2023-01-04T10:33:03;2.20;;;0.90;;
4786;SDS011;62338;48.832;9.422;2023-01-04T10:35:20;2.27;;;1.07;;
4786;SDS011;62338;48.832;9.422;2023-01-04T10:37:31;3.50;;;0.83;;
4786;SDS011;62338;48.832;9.422;2023-01-04T10:39:35;2.07;;;1.00;;
4786;SDS011;62338;48.832;9.422;2023-01-04T10:41:51;1.70;;;0.80;;
4786;SDS011;62338;48.832;9.422;2023-01-04T10:44:01;2.57;;;1.20;;
4786;SDS011;62338;48.832;9.422;2023-01-04T10:46:16;1.93;;;0.90;;
4786;SDS011;62338;48.832;9.422;2023-01-04T10:48:41;1.73;;;1.00;;
4786;SDS011;62338;48.832;9.422;2023-01-04T10:51:01;2.80;;;0.83;;
4786;SDS011;62338;48.832;9.422;2023-01-04T10:55:32;2.33;;;1.00;;
4786;SDS011;62338;48.832;9.422;2023-01-04T10:58:15;1.93;;;0.90;;
4786;SDS011;62338;48.832;9.422;2023-01-04T11:00:37;2.93;;;0.80;;
4786;SDS011;62338;48.832;9.422;2023-01-04T11:03:12;1.73;;;0.80;;
4786;SDS011;62338;48.832;9.422;2023-01-04T11:05:24;2.37;;;0.90;;
4786;SDS011;62338;48.832;9.422;2023-01-04T11:07:35;3.30;;;1.20;;
4786;SDS011;62338;48.832;9.422;2023-01-04T11:09:51;1.77;;;0.80;;
4786;SDS011;62338;48.832;9.422;2023-01-04T11:11:57;2.17;;;0.97;;
4786;SDS011;62338;48.832;9.422;2023-01-04T11:14:01;2.10;;;0.70;;
4786;SDS011;62338;48.832;9.422;2023-01-04T11:16:04;2.00;;;0.80;;
4786;SDS011;62338;48.832;9.422;2023-01-04T11:18:06;2.23;;;1.10;;
4786;SDS011;62338;48.832;9.422;2023-01-04T11:20:10;2.20;;;0.80;;
4786;SDS011;62338;48.832;9.422;2023-01-04T11:24:30;3.97;;;0.90;;
4786;SDS011;62338;48.832;9.422;2023-01-04T11:26:35;2.60;;;1.10;;
4786;SDS011;62338;48.832;9.422;2023-01-04T11:28:51;2.00;;;0.70;;
4786;SDS011;62338;48.832;9.422;2023-01-04T11:33:15;2.27;;;0.90;;
4786;SDS011;62338;48.832;9.422;2023-01-04T11:35:39;1.70;;;0.90;;
4786;SDS011;62338;48.832;9.422;2023-01-04T11:37:51;3.30;;;1.17;;
4786;SDS011;62338;48.832;9.422;2023-01-04T11:40:20;2.20;;;1.00;;
4786;SDS011;62338;48.832;9.422;2023-01-04T11:42:24;1.60;;;0.70;;
4786;SDS011;62338;48.832;9.422;2023-01-04T11:44:26;3.33;;;1.17;;
4786;SDS011;62338;48.832;9.422;2023-01-04T11:46:28;2.57;;;0.90;;
4786;SDS011;62338;48.832;9.422;2023-01-04T11:50:45;2.03;;;0.83;;
4786;SDS011;62338;48.832;9.422;2023-01-04T11:52:48;1.80;;;0.80;;
4786;SDS011;62338;48.832;9.422;2023-01-04T11:54:50;1.80;;;0.80;;
4786;SDS011;62338;48.832;9.422;2023-01-04T11:57:05;3.13;;;0.83;;
4786;SDS011;62338;48.832;9.422;2023-01-04T11:59:17;3.07;;;0.90;;
4786;SDS011;62338;48.832;9.422;2023-01-04T12:01:25;3.23;;;0.80;;
4786;SDS011;62338;48.832;9.422;2023-01-04T12:03:37;3.93;;;1.10;;
4786;SDS011;62338;48.832;9.422;2023-01-04T12:05:40;1.97;;;0.80;;
4786;SDS011;62338;48.832;9.422;2023-01-04T12:07:42;1.80;;;0.90;;
4786;SDS011;62338;48.832;9.422;2023-01-04T12:09:43;1.90;;;0.90;;
4786;SDS011;62338;48.832;9.422;2023-01-04T12:11:47;1.80;;;0.73;;
4786;SDS011;62338;48.832;9.422;2023-01-04T12:13:50;2.00;;;0.80;;
4786;SDS011;62338;48.832;9.422;2023-01-04T12:18:21;1.93;;;0.70;;
4786;SDS011;62338;48.832;9.422;2023-01-04T12:20:28;3.07;;;1.10;;
4786;SDS011;62338;48.832;9.422;2023-01-04T12:22:37;1.97;;;0.93;;
4786;SDS011;62338;48.832;9.422;2023-01-04T12:24:40;2.20;;;1.00;;
4786;SDS011;62338;48.832;9.422;2023-01-04T12:26:45;2.40;;;1.20;;
4786;SDS011;62338;48.832;9.422;2023-01-04T12:28:50;2.10;;;0.80;;
4786;SDS011;62338;48.832;9.422;2023-01-04T12:38:08;2.33;;;0.90;;
4786;SDS011;62338;48.832;9.422;2023-01-04T12:45:17;2.53;;;1.30;;
4786;SDS011;62338;48.832;9.422;2023-01-04T12:49:49;3.90;;;1.00;;
4786;SDS011;62338;48.832;9.422;2023-01-04T12:54:38;2.27;;;1.33;;
4786;SDS011;62338;48.832;9.422;2023-01-04T12:59:32;3.13;;;1.10;;
4786;SDS011;62338;48.832;9.422;2023-01-04T13:01:39;2.00;;;0.97;;
4786;SDS011;62338;48.832;9.422;2023-01-04T13:04:26;2.90;;;1.00;;
4786;SDS011;62338;48.832;9.422;2023-01-04T13:06:32;1.90;;;0.80;;
4786;SDS011;62338;48.832;9.422;2023-01-04T13:08:40;3.00;;;1.00;;
4786;SDS011;62338;48.832;9.422;2023-01-04T13:10:54;1.90;;;0.90;;
4786;SDS011;62338;48.832;9.422;2023-01-04T13:12:58;2.27;;;1.00;;
4786;SDS011;62338;48.832;9.422;2023-01-04T13:15:13;2.20;;;0.90;;
4786;SDS011;62338;48.832;9.422;2023-01-04T13:17:22;1.90;;;1.00;;
4786;SDS011;62338;48.832;9.422;2023-01-04T13:19:27;2.43;;;0.80;;
4786;SDS011;62338;48.832;9.422;2023-01-04T13:21:33;2.20;;;1.00;;
4786;SDS011;62338;48.832;9.422;2023-01-04T13:23:39;2.27;;;1.03;;
4786;SDS011;62338;48.832;9.422;2023-01-04T13:25:48;2.10;;;0.90;;
4786;SDS011;62338;48.832;9.422;2023-01-04T13:27:53;2.63;;;1.13;;
4786;SDS011;62338;48.832;9.422;2023-01-04T13:30:03;2.27;;;0.90;;
4786;SDS011;62338;48.832;9.422;2023-01-04T13:32:08;1.70;;;0.80;;
4786;SDS011;62338;48.832;9.422;2023-01-04T13:34:17;2.93;;;1.03;;
4786;SDS011;62338;48.832;9.422;2023-01-04T13:36:21;3.93;;;1.50;;
4786;SDS011;62338;48.832;9.422;2023-01-04T13:38:22;5.53;;;1.17;;
4786;SDS011;62338;48.832;9.422;2023-01-04T13:40:28;4.13;;;1.03;;
4786;SDS011;62338;48.832;9.422;2023-01-04T13:42:36;2.17;;;1.13;;
4786;SDS011;62338;48.832;9.422;2023-01-04T13:47:15;1.90;;;0.90;;
4786;SDS011;62338;48.832;9.422;2023-01-04T13:49:17;3.53;;;1.00;;
4786;SDS011;62338;48.832;9.422;2023-01-04T13:51:22;2.13;;;0.90;;
4786;SDS011;62338;48.832;9.422;2023-01-04T13:53:34;3.10;;;1.07;;
4786;SDS011;62338;48.832;9.422;2023-01-04T13:55:36;3.03;;;1.00;;
4786;SDS011;62338;48.832;9.422;2023-01-04T13:57:39;2.73;;;1.20;;
4786;SDS011;62338;48.832;9.422;2023-01-04T13:59:58;3.53;;;0.80;;
4786;SDS011;62338;48.832;9.422;2023-01-04T14:02:00;2.00;;;0.90;;
4786;SDS011;62338;48.832;9.422;2023-01-04T14:04:03;3.00;;;1.00;;
4786;SDS011;62338;48.832;9.422;2023-01-04T14:08:29;1.80;;;0.97;;
4786;SDS011;62338;48.832;9.422;2023-01-04T14:10:35;3.30;;;1.00;;
4786;SDS011;62338;48.832;9.422;2023-01-04T14:12:37;2.90;;;1.10;;
4786;SDS011;62338;48.832;9.422;2023-01-04T14:16:48;2.20;;;1.10;;
4786;SDS011;62338;48.832;9.422;2023-01-04T14:18:51;1.50;;;0.70;;
4786;SDS011;62338;48.832;9.422;2023-01-04T14:20:53;4.77;;;0.90;;
4786;SDS011;62338;48.832;9.422;2023-01-04T14:22:56;3.00;;;0.90;;